Time;durP1;ratioP1;P1;durP2;ratioP2;P2;SDS_P1;SDS_P2;PMS_P1;PMS_P2;Temp;Humidity;BMP_temperature;BMP_pressure;BME280_temperature;BME280_humidity;BME280_pressure;Samples;Min_cycle;Max_cycle;Signal;HPM_P1;HPM_P2
2023/12/22 00:01:32;;;;;;;11.37;2.60;;;;;;;3.94;100.00;96424.63;4247668;28;21572;-73
2023/12/22 00:03:59;;;;;;;14.13;2.47;;;;;;;3.94;100.00;96438.00;4281405;28;20363;-75
2023/12/22 00:06:26;;;;;;;12.07;2.27;;;;;;;4.06;100.00;96432.06;4259183;28;20335;-74
2023/12/22 00:08:52;;;;;;;10.30;1.93;;;;;;;3.96;99.78;96429.81;4227260;28;20350;-74
2023/12/22 00:11:20;;;;;;;12.97;2.77;;;;;;;3.90;99.83;96431.44;4235809;28;20873;-73
2023/12/22 00:13:46;;;;;;;8.67;2.00;;;;;;;3.86;99.54;96437.41;4245736;28;20437;-74
2023/12/22 00:16:13;;;;;;;9.27;2.27;;;;;;;3.79;99.43;96424.84;4240830;28;22101;-74
2023/12/22 00:18:40;;;;;;;14.93;2.20;;;;;;;3.86;98.46;96424.03;4239717;28;21028;-72
2023/12/22 00:21:12;;;;;;;15.07;2.30;;;;;;;3.83;98.70;96430.59;4241673;28;20348;-73
2023/12/22 00:23:39;;;;;;;12.70;1.87;;;;;;;3.80;98.45;96442.53;4235230;28;20889;-73
2023/12/22 00:26:05;;;;;;;14.93;2.37;;;;;;;3.77;97.94;96426.88;4243423;28;25721;-73
2023/12/22 00:28:32;;;;;;;14.37;2.00;;;;;;;3.79;96.77;96429.34;4236992;28;20246;-73
2023/12/22 00:30:59;;;;;;;11.00;2.20;;;;;;;3.82;95.52;96445.00;4221007;28;20242;-74
2023/12/22 00:33:26;;;;;;;12.07;1.73;;;;;;;3.79;95.86;96438.22;4240391;28;20230;-73
2023/12/22 00:35:52;;;;;;;10.57;1.90;;;;;;;3.78;95.52;96455.28;4240001;28;20589;-72
2023/12/22 00:38:19;;;;;;;9.40;1.97;;;;;;;3.77;94.98;96450.97;4229746;28;20295;-75
2023/12/22 00:40:46;;;;;;;12.90;2.33;;;;;;;3.69;95.20;96459.16;4233016;28;20283;-74
2023/12/22 00:43:12;;;;;;;16.23;2.30;;;;;;;3.69;94.74;96464.53;4262740;28;20230;-73
2023/12/22 00:45:39;;;;;;;11.83;2.30;;;;;;;3.67;94.85;96466.56;4236809;28;22108;-73
2023/12/22 00:48:06;;;;;;;10.93;2.33;;;;;;;3.68;93.59;96481.59;4239445;28;25537;-73
2023/12/22 00:50:32;;;;;;;16.13;2.33;;;;;;;3.63;92.92;96476.84;4246065;28;21692;-73
2023/12/22 00:52:59;;;;;;;13.77;2.67;;;;;;;3.60;92.18;96474.59;4246313;28;21263;-74
2023/12/22 00:55:25;;;;;;;19.37;3.07;;;;;;;3.55;92.42;96468.19;4255451;28;20245;-73
2023/12/22 00:57:52;;;;;;;15.23;2.30;;;;;;;3.56;91.86;96464.50;4240628;28;20323;-75
2023/12/22 01:00:19;;;;;;;11.40;1.93;;;;;;;3.57;91.23;96452.78;4247929;28;21783;-75
2023/12/22 01:02:45;;;;;;;14.53;2.10;;;;;;;3.52;91.82;96471.25;4226990;28;22723;-74
2023/12/22 01:05:12;;;;;;;16.17;2.80;;;;;;;3.53;91.41;96479.09;4239328;28;20304;-73
2023/12/22 01:07:38;;;;;;;15.60;3.67;;;;;;;3.48;91.71;96468.16;4236158;28;20231;-73
2023/12/22 01:10:06;;;;;;;12.13;2.10;;;;;;;3.48;92.00;96473.50;4234186;28;23004;-72
2023/12/22 01:12:32;;;;;;;7.67;2.10;;;;;;;3.44;91.40;96477.59;4255517;28;21330;-74
2023/12/22 01:14:59;;;;;;;14.67;2.07;;;;;;;3.39;91.78;96477.41;4224019;28;20242;-75
2023/12/22 01:17:26;;;;;;;13.37;2.57;;;;;;;3.40;91.18;96471.84;4223843;28;20294;-75
2023/12/22 01:19:52;;;;;;;21.17;2.80;;;;;;;3.36;91.50;96475.09;4225885;28;20246;-72
2023/12/22 01:22:20;;;;;;;8.13;1.97;;;;;;;3.26;91.75;96454.91;4228370;28;20997;-75
2023/12/22 01:24:47;;;;;;;11.40;1.87;;;;;;;3.29;91.24;96446.50;4229716;28;20330;-74
2023/12/22 01:27:13;;;;;;;14.80;2.97;;;;;;;3.32;89.93;96458.63;4236008;28;22838;-74
2023/12/22 01:29:40;;;;;;;17.13;3.07;;;;;;;3.36;89.23;96441.16;4241349;28;23013;-73
2023/12/22 01:32:06;;;;;;;11.53;2.50;;;;;;;3.37;89.27;96436.66;4238706;28;22914;-74
2023/12/22 01:34:33;;;;;;;14.00;2.60;;;;;;;3.37;89.04;96447.34;4236971;28;20596;-75
2023/12/22 01:37:00;;;;;;;16.30;2.37;;;;;;;3.37;89.04;96445.50;4231886;28;21092;-74
2023/12/22 01:39:26;;;;;;;19.80;3.17;;;;;;;3.34;88.77;96453.94;4226577;28;20226;-72
2023/12/22 01:41:53;;;;;;;12.87;2.33;;;;;;;3.33;88.83;96460.28;4238401;28;20558;-73
2023/12/22 01:44:20;;;;;;;24.03;3.50;;;;;;;3.31;89.01;96457.00;4231218;28;20250;-72
2023/12/22 01:46:47;;;;;;;8.50;2.57;;;;;;;3.37;88.38;96453.50;4235682;28;20242;-74
2023/12/22 01:49:14;;;;;;;22.53;2.70;;;;;;;3.35;88.82;96454.75;4244983;28;20242;-74
2023/12/22 01:51:43;;;;;;;12.50;2.37;;;;;;;3.37;88.08;96453.50;4240827;28;21966;-72
2023/12/22 01:54:11;;;;;;;13.20;2.50;;;;;;;3.38;88.53;96467.72;4241005;28;20238;-73
2023/12/22 01:56:37;;;;;;;20.63;3.73;;;;;;;3.41;87.77;96462.78;4248380;28;21477;-73
2023/12/22 01:59:04;;;;;;;13.70;2.63;;;;;;;3.35;88.81;96470.78;4239046;28;20235;-73
2023/12/22 02:01:31;;;;;;;18.10;3.97;;;;;;;3.45;87.54;96474.72;4255331;28;20230;-75
2023/12/22 02:03:59;;;;;;;15.57;2.93;;;;;;;3.52;87.21;96473.91;4232065;28;20230;-74
2023/12/22 02:06:26;;;;;;;14.63;2.60;;;;;;;3.49;87.59;96470.66;4237317;28;20296;-74
2023/12/22 02:08:53;;;;;;;20.33;2.50;;;;;;;3.55;86.98;96476.19;4240291;28;23739;-76
2023/12/22 02:11:20;;;;;;;19.80;2.70;;;;;;;3.52;87.49;96468.56;4241102;28;20871;-75
2023/12/22 02:13:46;;;;;;;17.10;3.00;;;;;;;3.55;87.74;96470.84;4234044;28;20366;-73
2023/12/22 02:16:26;;;;;;;15.07;2.90;;;;;;;3.58;86.92;96468.59;4237763;28;20383;-75
2023/12/22 02:18:56;;;;;;;17.93;2.80;;;;;;;3.63;86.42;96470.69;4235905;28;21636;-75
2023/12/22 02:21:22;;;;;;;12.80;2.27;;;;;;;3.58;86.35;96457.91;4239238;28;20335;-75
2023/12/22 02:23:49;;;;;;;18.60;2.70;;;;;;;3.56;86.75;96451.13;4235507;28;21949;-74
2023/12/22 02:26:34;;;;;;;12.50;2.80;;;;;;;3.52;86.87;96453.38;4252699;28;20375;-75
2023/12/22 02:29:01;;;;;;;14.57;2.87;;;;;;;3.53;87.00;96446.16;4242876;28;21013;-75
2023/12/22 02:31:44;;;;;;;15.03;3.57;;;;;;;3.55;87.37;96441.44;4239736;28;20508;-75
2023/12/22 02:34:17;;;;;;;13.27;2.40;;;;;;;3.48;87.07;96442.25;4247597;28;20416;-75
2023/12/22 02:36:45;;;;;;;19.43;3.00;;;;;;;3.45;87.28;96449.84;4237729;28;25538;-74
2023/12/22 02:39:14;;;;;;;18.03;3.17;;;;;;;3.42;87.26;96445.75;4215482;28;20600;-74
2023/12/22 02:41:41;;;;;;;12.23;2.53;;;;;;;3.43;87.82;96452.72;4234343;28;20292;-75
2023/12/22 02:44:08;;;;;;;15.17;3.03;;;;;;;3.41;87.84;96453.94;4235937;28;20351;-75
2023/12/22 02:46:35;;;;;;;18.37;2.67;;;;;;;3.41;87.70;96452.09;4235118;28;20785;-73
2023/12/22 02:49:01;;;;;;;18.53;2.23;;;;;;;3.43;87.69;96451.91;4251618;28;22575;-73
2023/12/22 02:51:28;;;;;;;14.37;2.73;;;;;;;3.54;86.53;96453.16;4232753;28;20295;-75
2023/12/22 02:53:55;;;;;;;18.97;2.90;;;;;;;3.49;86.93;96451.94;4238703;28;20237;-73
2023/12/22 02:56:21;;;;;;;18.13;2.93;;;;;;;3.58;85.98;96441.06;4238962;28;21145;-74
2023/12/22 02:58:48;;;;;;;16.47;2.53;;;;;;;3.58;85.77;96449.06;4244884;28;20328;-73
2023/12/22 03:01:14;;;;;;;20.83;3.30;;;;;;;3.60;84.47;96447.84;4239323;28;20253;-74
2023/12/22 03:03:41;;;;;;;17.50;2.27;;;;;;;3.60;84.61;96444.31;4241159;28;20241;-74
2023/12/22 03:06:08;;;;;;;18.00;2.77;;;;;;;3.53;85.32;96452.34;4235147;28;20245;-72
2023/12/22 03:08:34;;;;;;;14.57;3.33;;;;;;;3.48;86.28;96450.28;4240079;28;20295;-74
2023/12/22 03:11:01;;;;;;;13.67;2.77;;;;;;;3.29;89.29;96454.53;4237773;28;20606;-72
2023/12/22 03:13:28;;;;;;;11.70;2.57;;;;;;;3.13;91.00;96461.03;4240697;28;22397;-74
2023/12/22 03:15:55;;;;;;;7.10;2.00;;;;;;;3.11;91.56;96448.88;4246305;28;20301;-74
2023/12/22 03:18:21;;;;;;;14.20;2.77;;;;;;;3.03;92.79;96463.25;4237950;28;22129;-73
2023/12/22 03:20:48;;;;;;;22.43;3.03;;;;;;;3.01;92.51;96460.78;4232366;28;20625;-73
2023/12/22 03:23:14;;;;;;;14.47;2.90;;;;;;;2.95;93.75;96460.72;4247019;28;20240;-75
2023/12/22 03:25:41;;;;;;;17.60;3.00;;;;;;;2.88;93.81;96449.19;4245543;28;21220;-74
2023/12/22 03:28:08;;;;;;;20.53;3.03;;;;;;;2.85;93.62;96429.03;4243833;28;21646;-73
2023/12/22 03:30:35;;;;;;;14.03;3.00;;;;;;;2.89;93.62;96438.28;4229041;28;20234;-72
2023/12/22 03:33:02;;;;;;;15.23;2.67;;;;;;;2.96;92.56;96435.66;4242569;28;21232;-74
2023/12/22 03:35:29;;;;;;;22.93;3.00;;;;;;;2.97;92.21;96453.34;4243844;28;20460;-74
2023/12/22 03:37:56;;;;;;;19.00;3.00;;;;;;;2.94;91.84;96443.91;4227610;28;20223;-73
2023/12/22 03:40:22;;;;;;;15.50;3.33;;;;;;;2.95;91.63;96444.72;4238885;28;20237;-74
2023/12/22 03:42:49;;;;;;;10.93;2.53;;;;;;;2.95;91.89;96450.06;4244934;28;20230;-72
2023/12/22 03:45:16;;;;;;;18.00;3.13;;;;;;;2.91;92.00;96438.94;4242553;28;20233;-74
2023/12/22 03:47:42;;;;;;;24.10;2.90;;;;;;;2.84;92.82;96448.75;4239291;28;20234;-72
2023/12/22 03:50:09;;;;;;;19.20;3.10;;;;;;;2.82;93.17;96459.66;4256709;28;20412;-74
2023/12/22 03:52:36;;;;;;;16.77;2.70;;;;;;;2.85;92.55;96464.59;4236202;28;21694;-73
2023/12/22 03:55:02;;;;;;;19.07;2.93;;;;;;;2.86;92.30;96457.41;4245814;28;20432;-73
2023/12/22 03:57:29;;;;;;;14.50;2.93;;;;;;;2.88;92.50;96449.19;4253274;28;20285;-74
2023/12/22 03:59:56;;;;;;;15.27;3.47;;;;;;;2.88;92.48;96439.31;4239315;28;20223;-75
2023/12/22 04:02:22;;;;;;;20.60;2.77;;;;;;;2.85;92.63;96445.06;4249811;28;21175;-74
2023/12/22 04:04:49;;;;;;;20.00;3.40;;;;;;;2.89;92.22;96457.00;4240846;28;22550;-74
2023/12/22 04:07:15;;;;;;;11.20;2.73;;;;;;;2.90;91.36;96453.31;4245045;28;20247;-72
2023/12/22 04:09:42;;;;;;;18.50;2.90;;;;;;;2.93;90.95;96446.75;4243747;28;20482;-75
2023/12/22 04:12:08;;;;;;;10.90;2.50;;;;;;;2.89;91.00;96440.16;4245048;28;20619;-72
2023/12/22 04:14:35;;;;;;;11.87;2.53;;;;;;;2.91;90.38;96446.13;4250244;28;20279;-73
2023/12/22 04:17:02;;;;;;;12.13;3.00;;;;;;;2.92;89.63;96445.94;4236893;28;20238;-73
2023/12/22 04:19:28;;;;;;;24.43;3.43;;;;;;;2.86;89.92;96433.38;4239654;28;20235;-73
2023/12/22 04:21:55;;;;;;;13.13;3.13;;;;;;;2.85;89.77;96429.84;4239567;28;20227;-72
2023/12/22 04:24:21;;;;;;;12.77;2.67;;;;;;;2.90;89.53;96437.28;4241391;28;20234;-73
2023/12/22 04:26:48;;;;;;;16.20;2.60;;;;;;;2.85;89.43;96440.53;4237620;28;20343;-73
2023/12/22 04:29:15;;;;;;;14.83;2.83;;;;;;;2.87;88.76;96447.53;4240862;28;20241;-74
2023/12/22 04:31:41;;;;;;;15.47;3.50;;;;;;;2.80;89.39;96437.66;4243906;28;22311;-74
2023/12/22 04:34:08;;;;;;;18.87;2.80;;;;;;;2.82;88.92;96440.13;4243654;28;21749;-74
2023/12/22 04:36:35;;;;;;;15.17;2.90;;;;;;;2.83;88.32;96449.78;4236097;28;20231;-74
2023/12/22 04:39:02;;;;;;;14.80;2.87;;;;;;;2.85;88.19;96464.59;4233924;28;20222;-74
2023/12/22 04:41:28;;;;;;;16.53;2.97;;;;;;;2.82;88.23;96462.31;4238913;28;20633;-75
2023/12/22 04:43:55;;;;;;;16.23;2.70;;;;;;;2.81;88.59;96447.31;4245613;28;23002;-76
2023/12/22 04:46:22;;;;;;;20.57;3.10;;;;;;;2.75;88.54;96449.94;4241021;28;21489;-74
2023/12/22 04:48:48;;;;;;;16.50;3.67;;;;;;;2.72;89.34;96477.03;4251873;28;20230;-75
2023/12/22 04:51:15;;;;;;;20.80;2.90;;;;;;;2.64;89.91;96451.31;4255109;28;20235;-73
2023/12/22 04:53:42;;;;;;;20.00;2.87;;;;;;;2.58;90.70;96462.78;4240750;28;25070;-74
2023/12/22 04:56:08;;;;;;;18.47;3.40;;;;;;;2.46;91.41;96451.81;4236740;28;20235;-76
2023/12/22 04:58:35;;;;;;;15.70;3.27;;;;;;;2.42;91.38;96464.72;4234743;28;20228;-74
2023/12/22 05:01:02;;;;;;;18.43;2.43;;;;;;;2.41;91.74;96455.06;4257811;28;20244;-74
2023/12/22 05:03:28;;;;;;;25.17;3.30;;;;;;;2.39;91.04;96470.44;4231631;28;21022;-73
2023/12/22 05:05:55;;;;;;;9.97;2.23;;;;;;;2.35;91.83;96485.19;4237047;28;23512;-73
2023/12/22 05:08:21;;;;;;;19.30;2.77;;;;;;;2.28;91.68;96465.63;4234661;28;20288;-73
2023/12/22 05:10:48;;;;;;;14.47;2.70;;;;;;;2.32;91.28;96491.75;4240775;28;20503;-75
2023/12/22 05:13:15;;;;;;;13.13;2.50;;;;;;;2.31;91.79;96494.56;4234547;28;22951;-74
2023/12/22 05:15:41;;;;;;;16.87;3.53;;;;;;;2.33;91.79;96501.41;4236952;28;20421;-75
2023/12/22 05:18:08;;;;;;;14.80;2.73;;;;;;;2.30;91.57;96495.63;4255123;28;21100;-74
2023/12/22 05:20:35;;;;;;;13.97;2.50;;;;;;;2.33;90.93;96490.72;4247313;28;20222;-74
2023/12/22 05:23:01;;;;;;;19.73;3.20;;;;;;;2.36;91.09;96497.53;4269143;28;21103;-74
2023/12/22 05:25:28;;;;;;;19.90;3.07;;;;;;;2.37;91.62;96500.00;4234931;28;20234;-73
2023/12/22 05:27:55;;;;;;;14.43;2.37;;;;;;;2.33;92.29;96488.06;4264725;28;20586;-74
2023/12/22 05:30:22;;;;;;;15.93;3.03;;;;;;;2.33;92.27;96500.56;4237680;28;20361;-73
2023/12/22 05:32:48;;;;;;;20.33;3.30;;;;;;;2.29;92.46;96502.78;4233615;28;20235;-76
2023/12/22 05:35:15;;;;;;;10.97;3.60;;;;;;;2.33;91.81;96501.41;4248412;28;23969;-75
2023/12/22 05:37:42;;;;;;;21.20;3.07;;;;;;;2.33;92.05;96509.41;4252830;28;20345;-74
2023/12/22 05:40:09;;;;;;;26.30;3.53;;;;;;;2.32;92.14;96514.91;4235048;28;20239;-76
2023/12/22 05:42:36;;;;;;;26.03;3.73;;;;;;;2.32;92.19;96506.91;4235755;28;20466;-77
2023/12/22 05:45:03;;;;;;;17.17;3.07;;;;;;;2.25;93.34;96512.22;4227811;28;20569;-74
2023/12/22 05:47:30;;;;;;;22.03;3.30;;;;;;;2.11;95.12;96513.91;4227470;28;20582;-75
2023/12/22 05:49:56;;;;;;;23.90;3.30;;;;;;;2.11;95.12;96521.91;4239359;28;20223;-74
2023/12/22 05:52:23;;;;;;;21.90;3.07;;;;;;;2.12;94.10;96512.91;4240862;28;20526;-73
2023/12/22 05:54:50;;;;;;;20.60;3.13;;;;;;;2.15;93.78;96512.50;4236030;28;20708;-72
2023/12/22 05:57:17;;;;;;;20.80;3.73;;;;;;;2.14;93.78;96516.22;4245885;28;20290;-76
2023/12/22 05:59:43;;;;;;;21.83;3.47;;;;;;;2.19;92.35;96500.44;4243659;28;20254;-74
2023/12/22 06:02:10;;;;;;;19.97;3.37;;;;;;;2.29;90.72;96531.34;4243324;28;20247;-74
2023/12/22 06:04:36;;;;;;;19.60;3.77;;;;;;;2.33;89.80;96517.41;4232542;28;20293;-73
2023/12/22 06:07:04;;;;;;;25.77;3.70;;;;;;;2.38;89.10;96516.81;4238335;28;22017;-73
2023/12/22 06:09:30;;;;;;;18.73;3.10;;;;;;;2.37;88.92;96536.53;4256858;28;20231;-75
2023/12/22 06:11:57;;;;;;;24.13;3.20;;;;;;;2.43;87.76;96530.44;4233888;28;20297;-74
2023/12/22 06:14:24;;;;;;;18.97;2.87;;;;;;;2.47;86.62;96529.00;4241110;28;20645;-73
2023/12/22 06:16:51;;;;;;;25.27;4.90;;;;;;;2.48;86.33;96529.84;4237782;28;20313;-73
2023/12/22 06:19:17;;;;;;;21.43;2.93;;;;;;;2.48;85.63;96529.84;4231287;28;25821;-76
2023/12/22 06:21:44;;;;;;;16.80;2.97;;;;;;;2.55;84.52;96530.72;4251203;28;20238;-75
2023/12/22 06:24:11;;;;;;;14.20;2.67;;;;;;;2.56;83.01;96528.88;4242593;28;20238;-75
2023/12/22 06:26:37;;;;;;;20.57;3.50;;;;;;;2.64;81.43;96531.41;4238208;28;20242;-75
2023/12/22 06:29:04;;;;;;;21.83;2.90;;;;;;;2.66;81.01;96532.03;4250187;28;20263;-74
2023/12/22 06:31:31;;;;;;;18.27;3.87;;;;;;;2.71;79.68;96547.50;4253663;28;23287;-75
2023/12/22 06:34:02;;;;;;;18.97;3.37;;;;;;;2.71;79.74;96566.19;4245930;28;20235;-74
2023/12/22 06:36:32;;;;;;;18.03;3.30;;;;;;;2.78;77.58;96564.38;4239314;28;20231;-75
2023/12/22 06:38:58;;;;;;;21.20;3.37;;;;;;;2.80;77.04;96568.50;4243442;28;20231;-74
2023/12/22 06:41:28;;;;;;;17.67;2.63;;;;;;;2.82;75.53;96569.16;4247257;28;20230;-71
2023/12/22 06:43:56;;;;;;;14.90;2.53;;;;;;;2.84;74.26;96571.63;4238097;28;23219;-71
2023/12/22 06:46:27;;;;;;;18.47;3.43;;;;;;;2.86;73.42;96564.25;4242121;28;24149;-72
2023/12/22 06:48:56;;;;;;;14.67;2.33;;;;;;;2.97;70.18;96561.03;4242339;28;20251;-72
2023/12/22 06:51:28;;;;;;;14.20;2.60;;;;;;;2.89;70.15;96563.03;4229748;28;25945;-70
2023/12/22 06:53:55;;;;;;;18.87;3.07;;;;;;;2.91;68.53;96579.69;4252332;28;20609;-69
2023/12/22 06:56:27;;;;;;;17.30;2.80;;;;;;;2.85;68.77;96565.25;4238843;28;20403;-69
2023/12/22 06:58:57;;;;;;;16.90;2.43;;;;;;;2.80;68.59;96567.66;4246092;28;21104;-70
2023/12/22 07:01:28;;;;;;;14.93;2.37;;;;;;;2.87;67.85;96562.38;4238178;28;21149;-71
2023/12/22 07:03:56;;;;;;;20.43;2.33;;;;;;;2.88;67.15;96567.53;4237936;28;20230;-75
2023/12/22 07:06:24;;;;;;;19.30;2.63;;;;;;;2.78;67.44;96577.75;4237746;28;20243;-75
2023/12/22 07:09:12;;;;;;;16.07;2.10;;;;;;;2.76;68.47;96585.13;4229387;28;20398;-74
2023/12/22 07:11:50;;;;;;;18.30;2.57;;;;;;;2.71;69.10;96590.22;4244030;28;23073;-74
2023/12/22 07:14:17;;;;;;;8.87;2.20;;;;;;;2.72;69.69;96602.56;4221749;28;22192;-73
2023/12/22 07:16:44;;;;;;;13.70;2.43;;;;;;;2.65;70.59;96597.97;4241651;28;21723;-73
2023/12/22 07:19:14;;;;;;;11.73;2.43;;;;;;;2.71;70.87;96595.56;4243876;28;20238;-71
2023/12/22 07:21:41;;;;;;;17.40;2.67;;;;;;;2.67;71.14;96611.94;4234536;28;20428;-71
2023/12/22 07:24:12;;;;;;;13.13;3.00;;;;;;;2.60;71.86;96615.59;4228060;28;20234;-72
2023/12/22 07:26:41;;;;;;;20.57;2.70;;;;;;;2.62;70.79;96602.84;4221713;28;22974;-71
2023/12/22 07:29:08;;;;;;;17.27;3.53;;;;;;;2.59;70.95;96609.41;4237560;28;20242;-74
2023/12/22 07:31:35;;;;;;;15.90;3.10;;;;;;;2.58;70.53;96605.09;4240830;28;20243;-73
2023/12/22 07:34:02;;;;;;;13.87;2.60;;;;;;;2.61;68.99;96607.38;4247243;28;20300;-71
2023/12/22 07:36:29;;;;;;;13.20;2.67;;;;;;;2.56;69.73;96614.31;4255936;28;22250;-70
2023/12/22 07:38:57;;;;;;;22.97;3.23;;;;;;;2.50;69.78;96616.72;4242622;28;20325;-69
2023/12/22 07:41:24;;;;;;;13.40;2.50;;;;;;;2.47;69.20;96625.09;4246174;28;25740;-69
2023/12/22 07:43:50;;;;;;;19.57;2.70;;;;;;;2.38;70.31;96628.91;4241042;28;20301;-70
2023/12/22 07:46:18;;;;;;;13.33;2.20;;;;;;;2.40;69.75;96608.19;4238685;28;20985;-70
2023/12/22 07:48:45;;;;;;;16.07;1.90;;;;;;;2.31;69.52;96628.88;4229131;28;24933;-72
2023/12/22 07:51:12;;;;;;;14.37;2.30;;;;;;;2.24;70.22;96635.97;4256222;28;20667;-72
2023/12/22 07:53:39;;;;;;;16.60;2.80;;;;;;;2.23;71.44;96618.31;4236237;28;20232;-72
2023/12/22 07:56:06;;;;;;;17.60;2.47;;;;;;;2.26;70.63;96638.44;4226483;28;20234;-71
2023/12/22 07:58:34;;;;;;;16.77;3.00;;;;;;;2.25;70.67;96642.13;4237891;28;20309;-73
2023/12/22 08:01:01;;;;;;;12.57;2.33;;;;;;;2.28;69.89;96641.75;4238984;28;20326;-74
2023/12/22 08:03:28;;;;;;;19.33;2.87;;;;;;;2.19;70.32;96633.88;4227833;28;22334;-71
2023/12/22 08:05:55;;;;;;;16.43;2.73;;;;;;;2.19;70.00;96638.38;4237358;28;20282;-69
2023/12/22 08:08:22;;;;;;;16.50;2.50;;;;;;;2.25;69.65;96642.13;4235828;28;20238;-70
2023/12/22 08:10:49;;;;;;;14.83;2.83;;;;;;;2.24;69.60;96646.66;4227646;28;21962;-68
2023/12/22 08:13:17;;;;;;;16.23;3.07;;;;;;;2.22;69.52;96638.84;4253486;28;20290;-70
2023/12/22 08:15:44;;;;;;;14.93;3.40;;;;;;;2.33;69.00;96639.34;4248699;28;20296;-68
2023/12/22 08:18:11;;;;;;;20.27;2.77;;;;;;;2.25;70.26;96650.13;4235089;28;20495;-70
2023/12/22 08:20:38;;;;;;;18.63;2.83;;;;;;;2.19;70.94;96657.88;4241489;28;22221;-70
2023/12/22 08:23:09;;;;;;;15.07;2.33;;;;;;;2.10;72.46;96658.19;4245580;28;23516;-72
2023/12/22 08:25:41;;;;;;;17.10;2.80;;;;;;;2.10;73.70;96667.00;4244573;28;20234;-72
2023/12/22 08:28:09;;;;;;;18.03;3.07;;;;;;;2.08;74.53;96677.03;4240408;28;21157;-73
2023/12/22 08:30:36;;;;;;;13.90;2.53;;;;;;;2.08;75.25;96678.88;4253571;28;20354;-74
2023/12/22 08:33:03;;;;;;;15.10;2.53;;;;;;;1.99;76.73;96686.97;4265595;28;20231;-74
2023/12/22 08:35:30;;;;;;;16.10;2.50;;;;;;;2.16;77.81;96689.44;4228279;28;22556;-71
2023/12/22 08:37:57;;;;;;;16.80;2.67;;;;;;;2.57;80.55;96694.22;4293347;28;21733;-64
2023/12/22 08:40:26;;;;;;;17.03;3.10;;;;;;;2.15;78.15;96698.47;4255430;28;20233;-75
2023/12/22 08:42:59;;;;;;;13.67;2.23;;;;;;;2.21;78.89;96693.22;4257903;28;20587;-71
2023/12/22 08:45:28;;;;;;;17.47;3.40;;;;;;;2.36;78.04;96695.03;4238114;28;20682;-78
2023/12/22 08:47:56;;;;;;;20.73;3.50;;;;;;;2.36;78.66;96695.84;4260840;28;20233;-77
2023/12/22 08:50:24;;;;;;;15.27;2.70;;;;;;;2.20;79.28;96694.22;4276548;28;21597;-69
2023/12/22 08:52:51;;;;;;;18.17;3.10;;;;;;;2.26;79.72;96686.47;4245914;28;20238;-70
2023/12/22 08:55:18;;;;;;;17.20;2.70;;;;;;;2.26;79.26;96683.81;4255376;28;25311;-69
2023/12/22 08:57:45;;;;;;;15.73;2.63;;;;;;;2.37;78.95;96688.66;4262401;28;21887;-71
2023/12/22 09:00:25;;;;;;;19.53;3.20;;;;;;;2.54;78.78;96683.91;4238811;28;20301;-70
2023/12/22 09:02:53;;;;;;;14.07;2.60;;;;;;;3.07;75.59;96675.56;4246040;28;21108;-72
2023/12/22 09:05:21;;;;;;;11.57;2.23;;;;;;;3.62;73.85;96674.94;4245528;28;20376;-71
2023/12/22 09:07:48;;;;;;;19.17;3.10;;;;;;;3.17;74.68;96678.75;4246970;28;20332;-69
2023/12/22 09:10:15;;;;;;;20.27;2.73;;;;;;;2.93;75.61;96685.34;4258944;28;20315;-70
2023/12/22 09:12:42;;;;;;;14.47;2.63;;;;;;;2.66;75.99;96668.22;4244567;28;21649;-71
2023/12/22 09:15:09;;;;;;;13.47;2.37;;;;;;;2.50;76.69;96674.63;4239355;28;21141;-69
2023/12/22 09:17:35;;;;;;;14.83;2.47;;;;;;;3.14;75.47;96663.09;4244173;28;20234;-68
2023/12/22 09:20:02;;;;;;;17.30;3.13;;;;;;;3.77;72.51;96656.94;4252093;28;20368;-71
2023/12/22 09:22:29;;;;;;;19.83;3.40;;;;;;;4.14;69.87;96651.34;4248215;28;20647;-70
2023/12/22 09:24:56;;;;;;;15.20;2.37;;;;;;;4.23;69.50;96658.16;4257564;28;21316;-69
2023/12/22 09:27:22;;;;;;;17.00;2.70;;;;;;;4.54;67.96;96653.31;4251879;28;20317;-72
2023/12/22 09:29:49;;;;;;;17.33;2.77;;;;;;;4.56;67.86;96636.00;4247603;28;20233;-70
2023/12/22 09:32:16;;;;;;;17.87;3.23;;;;;;;4.23;68.11;96642.09;4234451;28;25034;-70
2023/12/22 09:34:43;;;;;;;19.90;3.00;;;;;;;4.35;68.03;96638.84;4247974;28;21726;-69
2023/12/22 09:37:09;;;;;;;17.40;2.67;;;;;;;4.53;66.98;96627.56;4250977;28;20234;-69
2023/12/22 09:39:37;;;;;;;13.70;2.43;;;;;;;4.04;66.66;96610.75;4253870;28;20468;-69
2023/12/22 09:42:05;;;;;;;11.70;2.27;;;;;;;4.06;68.06;96614.88;4241415;28;20484;-67
2023/12/22 09:44:35;;;;;;;17.77;2.23;;;;;;;3.96;68.55;96623.28;4274286;28;20320;-70
2023/12/22 09:47:05;;;;;;;11.37;2.57;;;;;;;3.40;69.67;96613.53;4250220;28;21445;-69
2023/12/22 09:49:34;;;;;;;19.43;2.50;;;;;;;3.22;70.43;96603.34;4246377;28;20235;-71
2023/12/22 09:52:02;;;;;;;13.13;3.30;;;;;;;3.11;72.14;96604.72;4253917;28;20243;-69
2023/12/22 09:54:31;;;;;;;12.20;2.10;;;;;;;2.97;72.07;96586.94;4256922;28;21815;-69
2023/12/22 09:57:00;;;;;;;9.37;2.20;;;;;;;2.91;72.90;96588.53;4235826;28;20231;-69
2023/12/22 09:59:46;;;;;;;11.63;2.67;;;;;;;2.84;72.88;96590.31;4241779;28;21850;-71
2023/12/22 10:02:13;;;;;;;7.87;2.43;;;;;;;2.80;73.58;96589.88;4241997;28;20267;-69
2023/12/22 10:04:39;;;;;;;16.70;2.83;;;;;;;2.78;73.80;96581.22;4234688;28;20635;-71
2023/12/22 10:07:08;;;;;;;12.37;2.30;;;;;;;2.53;79.12;96584.28;4247955;28;21300;-70
2023/12/22 10:09:36;;;;;;;7.67;1.67;;;;;;;0.38;96.24;96622.44;4242271;28;20224;-69
2023/12/22 10:12:04;;;;;;;8.30;1.27;;;;;;;0.00;100.00;96657.75;4228492;28;20298;-71
2023/12/22 10:14:33;;;;;;;7.17;1.33;;;;;;;-0.24;100.00;96664.81;4245192;28;20437;-73
2023/12/22 10:17:05;;;;;;;7.50;1.63;;;;;;;-0.42;100.00;96667.72;4248893;28;20239;-71
2023/12/22 10:19:31;;;;;;;4.20;1.40;;;;;;;-0.56;100.00;96685.19;4245231;28;20254;-71
2023/12/22 10:21:58;;;;;;;6.63;1.97;;;;;;;-0.77;100.00;96684.91;4236718;28;20238;-71
2023/12/22 10:24:47;;;;;;;8.73;1.60;;;;;;;-0.98;100.00;96705.66;4244444;28;20232;-70
2023/12/22 10:27:21;;;;;;;3.87;1.50;;;;;;;-1.14;100.00;96690.59;4251596;28;20234;-71
2023/12/22 10:29:49;;;;;;;8.83;1.17;;;;;;;-1.25;100.00;96700.69;4280072;28;20298;-72
2023/12/22 10:32:16;;;;;;;5.20;1.23;;;;;;;-1.36;100.00;96684.09;4332505;28;21632;-72
2023/12/22 10:34:43;;;;;;;6.63;1.20;;;;;;;-1.41;100.00;96697.03;4244106;28;20252;-71
2023/12/22 10:37:10;;;;;;;4.97;1.33;;;;;;;-1.38;100.00;96675.47;4242152;28;20346;-71
2023/12/22 10:39:39;;;;;;;10.63;1.70;;;;;;;-1.32;100.00;96711.13;4261340;28;20713;-72
2023/12/22 10:42:07;;;;;;;5.37;1.07;;;;;;;-1.37;100.00;96695.69;4235763;28;20259;-71
2023/12/22 10:44:33;;;;;;;1.77;0.80;;;;;;;-1.37;100.00;96686.91;4236228;28;20250;-72
2023/12/22 10:47:01;;;;;;;7.30;0.77;;;;;;;-1.32;100.00;96679.28;4243237;28;21425;-72
2023/12/22 10:49:28;;;;;;;2.37;1.03;;;;;;;-1.32;100.00;96668.69;4240100;28;20245;-68
2023/12/22 10:51:56;;;;;;;4.47;0.80;;;;;;;-1.33;100.00;96664.34;4229404;28;21762;-70
2023/12/22 10:54:22;;;;;;;4.50;1.23;;;;;;;-1.29;100.00;96661.22;4255240;28;21357;-70
2023/12/22 10:56:49;;;;;;;5.23;1.33;;;;;;;-1.27;100.00;96647.78;4261791;28;20620;-70
2023/12/22 10:59:22;;;;;;;9.03;2.20;;;;;;;-1.23;100.00;96632.34;4228416;28;20352;-68
2023/12/22 11:01:51;;;;;;;6.67;1.67;;;;;;;-1.21;100.00;96633.00;4244763;28;20657;-71
2023/12/22 11:04:20;;;;;;;12.57;2.47;;;;;;;-1.18;100.00;96619.44;4256445;28;21492;-73
2023/12/22 11:06:49;;;;;;;8.57;2.73;;;;;;;-1.10;100.00;96622.06;4231308;28;21534;-68
2023/12/22 11:09:17;;;;;;;12.80;2.70;;;;;;;-1.05;100.00;96626.84;4230552;28;20253;-69
2023/12/22 11:11:44;;;;;;;16.43;2.27;;;;;;;-0.89;100.00;96618.84;4270791;28;20255;-73
2023/12/22 11:14:13;;;;;;;13.00;1.97;;;;;;;-0.74;100.00;96608.38;4261142;28;20259;-73
2023/12/22 11:16:46;;;;;;;11.27;2.03;;;;;;;-0.61;100.00;96607.84;4259763;28;20227;-69
2023/12/22 11:19:14;;;;;;;8.23;2.13;;;;;;;-0.51;100.00;96600.47;4248358;28;20306;-72
2023/12/22 11:21:43;;;;;;;13.93;2.17;;;;;;;-0.40;100.00;96595.81;4271057;28;20330;-71
2023/12/22 11:24:13;;;;;;;22.53;2.67;;;;;;;-0.34;100.00;96589.78;4244694;28;21353;-69
2023/12/22 11:26:42;;;;;;;13.07;3.23;;;;;;;-0.27;100.00;96604.03;4252893;28;20611;-70
2023/12/22 11:29:10;;;;;;;14.20;2.80;;;;;;;-0.17;100.00;96583.41;4257523;28;21798;-73
2023/12/22 11:31:37;;;;;;;12.27;2.77;;;;;;;-0.14;100.00;96576.91;4239958;28;21161;-73
2023/12/22 11:34:05;;;;;;;18.40;3.20;;;;;;;0.01;100.00;96595.56;4278656;28;24868;-73